Time;durP1;ratioP1;P1;durP2;ratioP2;P2;SDS_P1;SDS_P2;PMS_P1;PMS_P2;Temp;Humidity;BMP_temperature;BMP_pressure;BME280_temperature;BME280_humidity;BME280_pressure;Samples;Min_cycle;Max_cycle;Signal;HPM_P1;HPM_P2
2022/07/16 00:01:23;;;;;;;1.90;1.00;;;;;;;12.94;74.89;99006.23;104583;1273;76539;-24
2022/07/16 00:03:55;;;;;;;2.70;1.10;;;;;;;12.75;75.21;99013.39;104632;1273;77122;-24
2022/07/16 00:06:24;;;;;;;3.10;1.30;;;;;;;12.45;75.73;99015.50;104411;1274;74187;-24
2022/07/16 00:08:51;;;;;;;2.20;1.40;;;;;;;12.19;76.91;99017.46;104467;1273;61769;-24
2022/07/16 00:11:19;;;;;;;2.10;0.90;;;;;;;11.94;77.62;99015.92;104675;1273;61106;-24
2022/07/16 00:13:47;;;;;;;1.30;0.80;;;;;;;12.26;77.31;99012.35;104654;1273;76809;-24
2022/07/16 00:16:14;;;;;;;2.50;1.30;;;;;;;12.66;75.72;99018.37;104709;1273;77186;-24
2022/07/16 00:21:29;;;;;;;2.40;1.10;;;;;;;12.44;75.63;99019.09;104657;1273;61202;-24
2022/07/16 00:23:56;;;;;;;9.30;1.60;;;;;;;12.15;76.58;99021.98;104814;1273;63127;-24
2022/07/16 00:26:23;;;;;;;2.60;1.40;;;;;;;11.84;77.87;99022.44;105037;1273;75269;-24
2022/07/16 00:28:50;;;;;;;5.90;1.20;;;;;;;11.59;78.57;99021.20;105048;1273;77029;-24
2022/07/16 00:31:18;;;;;;;4.60;1.10;;;;;;;11.93;78.28;99025.50;104836;1273;75550;-24
2022/07/16 00:33:45;;;;;;;5.30;1.20;;;;;;;12.28;76.04;99028.46;104372;1273;61158;-24
2022/07/16 00:36:13;;;;;;;1.70;1.20;;;;;;;12.23;76.23;99030.69;104934;1273;61295;-24
2022/07/16 00:38:40;;;;;;;3.30;1.20;;;;;;;12.00;77.03;99028.65;104901;1272;76728;-24
2022/07/16 00:41:16;;;;;;;4.70;1.20;;;;;;;11.78;77.62;99029.48;104929;1273;76107;-24
2022/07/16 00:43:51;;;;;;;2.50;1.50;;;;;;;11.49;78.81;99032.52;104735;1273;75494;-24
2022/07/16 00:46:18;;;;;;;5.70;0.90;;;;;;;11.37;79.57;99034.38;104984;1273;63766;-24
2022/07/16 00:48:46;;;;;;;2.50;1.00;;;;;;;11.86;78.03;99035.64;104715;1273;62822;-24
2022/07/16 00:51:14;;;;;;;1.60;1.00;;;;;;;12.24;76.25;99042.95;104754;1273;76346;-25
2022/07/16 00:53:42;;;;;;;1.40;0.90;;;;;;;12.22;76.25;99035.30;104593;1273;75913;-24
2022/07/16 00:56:13;;;;;;;2.90;1.40;;;;;;;12.03;76.72;99036.27;104730;1273;75373;-25
2022/07/16 00:58:42;;;;;;;2.80;1.20;;;;;;;11.73;77.77;99036.23;104304;1273;487462;-25
2022/07/16 01:01:09;;;;;;;5.40;1.30;;;;;;;11.48;78.72;99033.31;104769;1273;61770;-24
2022/07/16 01:03:37;;;;;;;3.70;1.00;;;;;;;11.24;80.02;99030.82;105100;1273;74168;-25
2022/07/16 01:06:05;;;;;;;4.20;1.10;;;;;;;11.66;79.16;99027.45;104651;1273;75944;-24
2022/07/16 01:08:34;;;;;;;3.10;1.10;;;;;;;12.17;76.86;99029.14;104457;1273;75403;-24
2022/07/16 01:11:03;;;;;;;3.30;1.10;;;;;;;12.22;76.37;99025.95;104997;1273;61107;-24
2022/07/16 01:13:30;;;;;;;6.60;1.80;;;;;;;12.10;76.35;99025.73;104743;1273;61942;-24
2022/07/16 01:15:58;;;;;;;1.90;1.30;;;;;;;11.87;77.14;99028.04;104635;1275;76419;-24
2022/07/16 01:18:28;;;;;;;3.30;1.50;;;;;;;11.62;77.87;99023.29;104662;1273;76121;-24
2022/07/16 01:20:56;;;;;;;4.70;1.20;;;;;;;11.43;78.97;99020.33;104522;1276;75682;-24
2022/07/16 01:23:24;;;;;;;1.50;0.90;;;;;;;11.87;78.27;99013.41;104859;1273;62882;-24
2022/07/16 01:25:51;;;;;;;5.30;1.30;;;;;;;12.42;76.26;99009.17;104735;1273;62837;-24
2022/07/16 01:28:19;;;;;;;9.20;1.80;;;;;;;12.50;75.56;99011.66;104815;1273;75545;-24
2022/07/16 01:30:46;;;;;;;4.00;1.50;;;;;;;12.37;75.60;99012.72;104799;1273;77120;-24
2022/07/16 01:33:27;;;;;;;5.00;1.10;;;;;;;12.23;75.89;99017.67;104711;1273;74349;-24
2022/07/16 01:35:59;;;;;;;2.00;1.30;;;;;;;11.92;76.33;99022.08;104708;1273;62036;-24
2022/07/16 01:38:27;;;;;;;3.00;1.00;;;;;;;11.67;77.23;99025.44;104719;1273;61730;-24
2022/07/16 01:40:54;;;;;;;2.50;1.00;;;;;;;12.08;77.16;99023.52;104977;1273;76445;-24
2022/07/16 01:43:23;;;;;;;6.60;1.50;;;;;;;12.62;75.04;99028.61;105123;1273;75937;-25
2022/07/16 01:45:51;;;;;;;2.30;1.40;;;;;;;12.63;74.31;99024.50;104911;1274;75427;-25
2022/07/16 01:48:19;;;;;;;1.80;1.20;;;;;;;12.39;74.61;99026.64;104807;1273;61006;-24
2022/07/16 01:50:46;;;;;;;1.40;1.10;;;;;;;12.19;75.33;99032.11;104655;1273;61138;-24
2022/07/16 01:53:14;;;;;;;2.30;1.50;;;;;;;11.95;75.86;99034.18;104487;1275;75589;-24
2022/07/16 01:55:41;;;;;;;2.60;0.90;;;;;;;11.72;76.76;99033.20;104707;1273;77308;-25
2022/07/16 01:58:11;;;;;;;2.20;0.90;;;;;;;12.02;76.45;99028.67;104860;1273;75395;-25
2022/07/16 02:00:39;;;;;;;3.10;1.00;;;;;;;12.52;75.15;99029.34;104661;1273;62903;-24
2022/07/16 02:03:07;;;;;;;1.40;1.10;;;;;;;12.39;73.77;99034.52;104693;1273;62044;-24
2022/07/16 02:05:35;;;;;;;1.90;1.20;;;;;;;12.01;75.11;99035.77;104845;1273;76577;-24
2022/07/16 02:08:03;;;;;;;2.20;1.40;;;;;;;11.63;76.95;99039.34;104628;1273;76878;-24
2022/07/16 02:10:31;;;;;;;3.70;1.70;;;;;;;11.38;77.69;99036.21;104656;1273;74272;-24
2022/07/16 02:12:58;;;;;;;1.20;0.80;;;;;;;11.23;78.46;99031.20;104853;1273;63555;-24
2022/07/16 02:15:26;;;;;;;2.00;0.90;;;;;;;11.51;78.06;99034.80;104823;1273;61727;-24
2022/07/16 02:17:53;;;;;;;4.50;1.60;;;;;;;11.97;76.67;99031.00;104663;1273;76695;-24
2022/07/16 02:20:21;;;;;;;1.70;1.40;;;;;;;11.98;75.92;99032.47;104673;1273;76342;-24
2022/07/16 02:22:54;;;;;;;1.60;1.30;;;;;;;11.85;76.13;99037.11;104829;1273;75426;-25
2022/07/16 02:25:24;;;;;;;1.70;1.40;;;;;;;11.62;76.46;99036.84;104738;1273;63122;-24
2022/07/16 02:28:06;;;;;;;2.20;1.60;;;;;;;11.35;77.76;99035.98;104531;1273;63029;-24
2022/07/16 02:30:35;;;;;;;2.80;1.00;;;;;;;11.19;78.78;99035.23;104553;1273;75664;-24
2022/07/16 02:33:03;;;;;;;3.30;1.10;;;;;;;11.70;77.88;99038.67;104242;1276;76067;-24
2022/07/16 02:35:31;;;;;;;3.40;1.60;;;;;;;12.22;75.72;99037.43;104517;1273;75216;-25
2022/07/16 02:37:59;;;;;;;2.70;1.50;;;;;;;12.25;75.83;99034.52;104599;1274;63310;-24
2022/07/16 02:40:27;;;;;;;3.40;1.40;;;;;;;12.09;76.02;99030.70;104612;1273;62845;-24
2022/07/16 02:42:55;;;;;;;3.90;1.40;;;;;;;11.93;76.45;99027.38;104571;1273;75790;-24
2022/07/16 02:45:22;;;;;;;5.20;2.00;;;;;;;11.82;76.73;99030.38;104540;1273;77008;-24
2022/07/16 02:47:50;;;;;;;4.50;0.90;;;;;;;11.74;76.65;99030.70;104578;1273;75456;-25
2022/07/16 02:50:17;;;;;;;1.80;1.20;;;;;;;12.16;76.24;99038.98;104630;1273;63173;-24
2022/07/16 02:52:45;;;;;;;7.30;3.00;;;;;;;12.60;74.33;99036.98;104657;1273;61197;-24
2022/07/16 02:55:12;;;;;;;4.20;1.70;;;;;;;12.67;73.61;99033.92;104603;1273;76634;-24
2022/07/16 02:57:40;;;;;;;4.80;1.50;;;;;;;12.55;73.88;99035.67;104843;1273;76863;-24
2022/07/16 03:00:08;;;;;;;2.10;1.20;;;;;;;12.39;74.31;99039.88;104794;1273;74234;-24
2022/07/16 03:02:36;;;;;;;4.90;1.50;;;;;;;12.11;75.44;99044.11;104781;1273;62469;-25
2022/07/16 03:05:04;;;;;;;1.80;1.10;;;;;;;11.88;76.39;99044.70;104988;1273;63076;-24
2022/07/16 03:07:32;;;;;;;1.70;1.30;;;;;;;12.26;76.26;99046.61;104710;1273;76574;-24
2022/07/16 03:09:59;;;;;;;2.30;1.40;;;;;;;12.83;74.87;99051.70;104717;1273;75983;-26
2022/07/16 03:12:26;;;;;;;1.40;1.30;;;;;;;13.25;73.63;99049.99;104679;1273;75697;-25
2022/07/16 03:14:54;;;;;;;3.00;1.40;;;;;;;13.55;72.05;99051.80;104708;1273;61924;-25
2022/07/16 03:17:21;;;;;;;2.90;1.30;;;;;;;13.59;71.43;99047.14;104709;1273;61358;-24
2022/07/16 03:19:48;;;;;;;2.90;1.60;;;;;;;13.49;71.69;99046.65;104641;1273;75555;-24
2022/07/16 03:22:17;;;;;;;3.00;1.90;;;;;;;13.33;72.20;99053.05;104684;1273;76876;-25
2022/07/16 03:24:45;;;;;;;8.20;1.30;;;;;;;13.13;72.92;99051.95;104616;1273;74294;-24
2022/07/16 03:27:12;;;;;;;3.10;1.00;;;;;;;13.56;72.70;99055.09;104568;1273;63003;-24
2022/07/16 03:29:40;;;;;;;2.10;0.90;;;;;;;14.03;70.91;99052.25;104618;1273;61987;-25
2022/07/16 03:32:07;;;;;;;5.80;1.20;;;;;;;14.00;70.84;99051.84;104598;1273;76491;-25
2022/07/16 03:34:35;;;;;;;1.20;1.10;;;;;;;13.76;71.23;99055.67;104990;1273;76947;-24
2022/07/16 03:37:03;;;;;;;3.10;1.60;;;;;;;13.29;73.09;99054.95;104728;1273;75414;-25
2022/07/16 03:39:30;;;;;;;2.90;1.40;;;;;;;13.26;73.75;99055.30;104687;1273;62881;-24
2022/07/16 03:41:57;;;;;;;2.90;1.50;;;;;;;13.46;73.17;99058.19;104639;1273;61066;-25
2022/07/16 03:44:25;;;;;;;2.80;1.10;;;;;;;13.58;72.87;99054.45;104608;1273;76765;-24
2022/07/16 03:46:52;;;;;;;2.30;1.20;;;;;;;14.12;72.41;99057.73;104651;1273;76139;-24
2022/07/16 03:49:20;;;;;;;4.20;1.30;;;;;;;14.79;70.15;99051.75;104493;1273;74222;-24
2022/07/16 03:51:47;;;;;;;3.80;1.40;;;;;;;15.22;68.04;99050.83;104647;1273;61156;-24
2022/07/16 03:54:15;;;;;;;6.40;1.40;;;;;;;15.14;67.76;99052.39;105089;1273;62825;-24
2022/07/16 03:56:42;;;;;;;2.50;1.30;;;;;;;14.94;69.15;99053.98;104734;1273;74523;-24
2022/07/16 03:59:10;;;;;;;1.90;1.20;;;;;;;14.68;69.78;99056.52;104911;1273;76735;-24
2022/07/16 04:01:38;;;;;;;1.80;1.50;;;;;;;14.36;71.09;99055.40;104739;1273;75853;-24
2022/07/16 04:04:06;;;;;;;3.00;1.20;;;;;;;14.21;71.40;99051.31;104652;1271;62783;-24
2022/07/16 04:06:34;;;;;;;3.50;1.00;;;;;;;14.31;71.99;99054.00;104675;1273;62846;-24
2022/07/16 04:09:02;;;;;;;3.10;1.30;;;;;;;15.11;71.01;99057.48;104568;1273;75251;-25
2022/07/16 04:11:29;;;;;;;2.40;1.90;;;;;;;15.96;68.18;99054.05;104696;1273;77074;-24
2022/07/16 04:13:56;;;;;;;4.30;1.40;;;;;;;16.31;67.14;99059.84;104680;1273;75367;-24
2022/07/16 04:16:24;;;;;;;2.70;1.30;;;;;;;16.42;65.61;99056.11;104723;1273;61959;-25
2022/07/16 04:18:51;;;;;;;2.10;1.50;;;;;;;16.29;65.66;99058.23;104721;1273;61167;-24
2022/07/16 04:21:19;;;;;;;4.60;1.60;;;;;;;16.31;65.48;99060.89;104741;1273;76169;-24
2022/07/16 04:23:46;;;;;;;2.20;1.50;;;;;;;16.18;66.80;99058.64;104625;1273;75918;-24
2022/07/16 04:26:14;;;;;;;4.90;1.50;;;;;;;16.12;66.97;99058.33;105025;1273;75292;-25
2022/07/16 04:28:41;;;;;;;6.00;1.70;;;;;;;16.07;66.36;99059.96;104686;1273;62509;-25
2022/07/16 04:31:09;;;;;;;2.80;1.70;;;;;;;16.02;65.77;99061.16;104554;1273;63009;-25
2022/07/16 04:33:36;;;;;;;3.80;1.60;;;;;;;15.71;67.50;99069.00;104593;1273;76257;-24
2022/07/16 04:36:04;;;;;;;2.90;1.60;;;;;;;15.60;67.51;99062.02;104967;1273;75971;-25
2022/07/16 04:38:31;;;;;;;2.30;1.50;;;;;;;15.69;67.18;99063.08;105168;1273;74334;-25
2022/07/16 04:40:59;;;;;;;1.90;1.30;;;;;;;15.71;67.72;99066.73;104959;1272;61952;-25
2022/07/16 04:43:27;;;;;;;5.80;1.30;;;;;;;16.48;66.16;99062.44;104955;1273;62773;-25
2022/07/16 04:45:54;;;;;;;4.00;1.40;;;;;;;17.12;64.76;99067.65;104432;1273;75573;-26
2022/07/16 04:48:22;;;;;;;3.70;1.40;;;;;;;17.20;64.12;99063.05;104668;1274;75856;-24
2022/07/16 04:50:50;;;;;;;3.60;1.40;;;;;;;17.15;63.55;99064.39;104622;1275;74163;-25
2022/07/16 04:53:17;;;;;;;4.50;1.50;;;;;;;17.17;62.73;99061.01;104675;1273;62814;-25
2022/07/16 04:55:45;;;;;;;4.30;1.40;;;;;;;17.12;62.04;99058.67;104578;1276;61600;-24
2022/07/16 04:58:12;;;;;;;3.00;1.50;;;;;;;16.98;61.60;99063.67;104529;1273;76376;-24
2022/07/16 05:00:40;;;;;;;3.20;1.40;;;;;;;16.64;61.60;99055.95;104522;1275;76974;-24
2022/07/16 05:03:08;;;;;;;4.00;1.70;;;;;;;16.36;62.98;99061.69;104632;1274;75297;-24
2022/07/16 05:05:37;;;;;;;2.80;1.70;;;;;;;16.21;64.06;99058.86;104459;1274;61760;-24
2022/07/16 05:08:06;;;;;;;3.40;1.20;;;;;;;16.14;64.68;99057.30;104611;1273;62962;-24
2022/07/16 05:10:34;;;;;;;4.40;1.60;;;;;;;16.16;64.02;99061.23;104387;1276;76318;-24
2022/07/16 05:13:02;;;;;;;1.60;1.10;;;;;;;16.32;62.71;99058.89;104688;1273;76725;-24
2022/07/16 05:15:30;;;;;;;3.60;1.20;;;;;;;16.44;63.02;99061.20;104625;1274;75688;-24
2022/07/16 05:17:57;;;;;;;2.70;1.50;;;;;;;16.58;61.99;99061.15;104637;1275;62256;-24
2022/07/16 05:20:26;;;;;;;2.90;1.30;;;;;;;16.63;62.46;99063.67;104619;1274;63030;-24
2022/07/16 05:22:54;;;;;;;4.30;1.40;;;;;;;16.75;61.65;99062.92;104586;1275;75444;-24
2022/07/16 05:25:21;;;;;;;12.00;1.70;;;;;;;16.86;61.05;99062.84;104609;1273;77415;-24
2022/07/16 05:27:49;;;;;;;2.60;1.30;;;;;;;17.05;61.51;99066.64;104686;1274;75087;-24
2022/07/16 05:30:16;;;;;;;2.90;1.00;;;;;;;16.79;59.40;99065.52;104690;1273;61156;-25
2022/07/16 05:32:44;;;;;;;3.90;1.90;;;;;;;17.10;59.90;99069.25;104578;1274;62943;-24
2022/07/16 05:35:13;;;;;;;2.60;1.30;;;;;;;17.32;60.20;99067.37;104512;1273;76536;-24
2022/07/16 05:37:40;;;;;;;2.30;1.20;;;;;;;17.55;59.27;99068.53;104673;1274;77262;-24
2022/07/16 05:40:08;;;;;;;2.50;1.10;;;;;;;17.74;58.75;99068.95;104690;1276;74206;-24
2022/07/16 05:42:37;;;;;;;2.10;0.90;;;;;;;17.70;58.75;99068.89;104452;1276;61976;-24
2022/07/16 05:45:08;;;;;;;2.10;0.80;;;;;;;17.74;58.04;99069.80;104400;1273;61814;-24
2022/07/16 05:47:36;;;;;;;3.50;1.40;;;;;;;17.74;57.79;99071.22;104458;1275;76707;-24
2022/07/16 05:50:04;;;;;;;3.70;1.20;;;;;;;17.84;58.24;99071.77;104896;1273;75921;-24
2022/07/16 05:52:32;;;;;;;1.50;1.00;;;;;;;17.55;57.58;99070.63;104465;1275;75218;-24
2022/07/16 05:54:59;;;;;;;2.40;1.00;;;;;;;17.58;57.24;99076.30;104561;1275;63099;-24
2022/07/16 05:57:26;;;;;;;2.00;1.00;;;;;;;17.67;56.18;99074.43;104704;1274;61842;-24
2022/07/16 05:59:54;;;;;;;4.90;1.10;;;;;;;18.10;56.01;99070.61;104896;1274;76232;-24
2022/07/16 06:02:21;;;;;;;3.80;1.20;;;;;;;18.20;54.91;99069.73;104817;1274;77000;-24
2022/07/16 06:04:49;;;;;;;3.40;1.30;;;;;;;18.39;55.29;99066.25;104850;1275;75534;-24
2022/07/16 06:07:17;;;;;;;1.70;1.00;;;;;;;18.53;54.55;99063.31;104582;1274;63401;-24
2022/07/16 06:09:45;;;;;;;1.90;1.10;;;;;;;18.59;55.38;99064.88;104533;1276;61821;-24
2022/07/16 06:12:12;;;;;;;2.30;1.30;;;;;;;18.77;56.04;99060.34;104565;1275;75745;-24
2022/07/16 06:14:39;;;;;;;2.60;1.00;;;;;;;19.04;54.01;99058.87;104521;1275;77059;-24
2022/07/16 06:17:06;;;;;;;12.80;1.70;;;;;;;19.08;53.35;99061.58;104622;1274;75445;-25
2022/07/16 06:19:34;;;;;;;2.20;1.20;;;;;;;19.38;53.03;99062.53;104644;1276;61804;-25
2022/07/16 06:22:01;;;;;;;6.60;1.10;;;;;;;19.56;53.17;99062.84;104890;1273;63039;-25
2022/07/16 06:24:29;;;;;;;2.00;1.10;;;;;;;19.79;51.91;99064.52;104713;1274;76701;-25
2022/07/16 06:26:57;;;;;;;1.30;1.00;;;;;;;19.99;51.15;99065.01;104464;1277;76020;-25
2022/07/16 06:29:24;;;;;;;3.30;1.10;;;;;;;19.71;50.00;99067.35;104894;1273;75429;-25
2022/07/16 06:31:52;;;;;;;2.70;0.90;;;;;;;19.68;48.67;99069.04;104767;1274;63068;-25
2022/07/16 06:34:19;;;;;;;2.70;1.10;;;;;;;19.93;49.74;99070.43;104605;1276;61873;-25
2022/07/16 06:36:49;;;;;;;8.30;1.10;;;;;;;19.98;48.85;99076.34;104726;1275;75307;-25
2022/07/16 06:39:16;;;;;;;4.00;1.20;;;;;;;19.97;49.76;99075.42;104661;1275;76991;-25
2022/07/16 06:41:43;;;;;;;3.30;0.80;;;;;;;20.37;50.39;99073.39;104906;1273;74355;-25
2022/07/16 06:44:11;;;;;;;2.90;1.10;;;;;;;20.54;48.67;99070.58;104678;1276;62068;-25
2022/07/16 06:46:38;;;;;;;10.50;1.50;;;;;;;20.69;49.00;99074.09;104885;1276;63291;-25
2022/07/16 06:49:06;;;;;;;4.40;1.00;;;;;;;20.76;48.74;99070.33;104913;1273;75480;-25
2022/07/16 06:51:33;;;;;;;1.30;1.00;;;;;;;20.10;47.91;99071.48;104813;1273;75969;-25
2022/07/16 06:54:00;;;;;;;6.10;1.20;;;;;;;20.26;48.06;99070.12;104628;1273;75441;-25
2022/07/16 06:56:28;;;;;;;2.40;0.90;;;;;;;20.77;47.96;99068.72;104777;1273;63009;-25
2022/07/16 06:58:55;;;;;;;2.10;0.80;;;;;;;20.92;47.81;99067.02;104728;1274;61602;-25
2022/07/16 07:01:23;;;;;;;2.00;0.80;;;;;;;20.88;47.00;99068.80;104692;1277;74885;-25
2022/07/16 07:03:50;;;;;;;5.70;0.80;;;;;;;20.91;46.59;99069.84;105128;1273;75351;-25
2022/07/16 07:06:18;;;;;;;19.30;2.20;;;;;;;21.28;46.71;99068.96;104900;1273;75382;-25
2022/07/16 07:08:45;;;;;;;1.50;0.90;;;;;;;21.41;46.21;99069.77;104655;1273;62939;-25
2022/07/16 07:11:19;;;;;;;2.50;0.80;;;;;;;21.22;42.83;99069.67;105023;1273;63208;-25
2022/07/16 07:13:48;;;;;;;1.30;0.70;;;;;;;21.21;44.58;99068.42;104739;1274;75740;-25
2022/07/16 07:16:16;;;;;;;2.90;1.10;;;;;;;21.18;44.96;99069.66;104984;1273;77258;-25
2022/07/16 07:18:43;;;;;;;2.30;1.00;;;;;;;21.51;45.73;99070.44;104883;1273;74311;-25
2022/07/16 07:21:11;;;;;;;5.50;0.90;;;;;;;21.83;44.73;99067.70;105075;1273;63096;-25
2022/07/16 07:23:38;;;;;;;5.70;0.70;;;;;;;21.88;44.15;99065.85;105032;1273;63100;-25
2022/07/16 07:26:06;;;;;;;2.90;0.90;;;;;;;21.76;43.93;99065.19;104578;1273;76566;-24
2022/07/16 07:28:33;;;;;;;2.20;1.00;;;;;;;21.99;44.46;99061.88;104668;1274;76956;-24
2022/07/16 07:31:00;;;;;;;1.40;0.70;;;;;;;21.86;43.29;99062.95;104961;1273;75123;-25
2022/07/16 07:33:28;;;;;;;2.10;0.90;;;;;;;21.91;40.20;99059.38;104696;1273;63243;-25
2022/07/16 07:35:55;;;;;;;2.80;0.70;;;;;;;21.86;40.47;99060.83;104820;1273;63559;-25
2022/07/16 07:38:23;;;;;;;1.10;0.70;;;;;;;22.11;40.57;99053.11;104753;1274;75453;-25
2022/07/16 07:40:50;;;;;;;2.20;0.70;;;;;;;22.16;40.21;99054.27;104740;1273;75910;-25
2022/07/16 07:43:18;;;;;;;3.80;0.70;;;;;;;21.86;39.16;99062.87;104694;1273;75384;-25
2022/07/16 07:45:45;;;;;;;2.50;0.50;;;;;;;21.87;38.48;99059.70;104961;1274;61057;-25
2022/07/16 07:48:13;;;;;;;1.90;0.60;;;;;;;22.08;38.20;99054.86;104864;1273;61060;-25
2022/07/16 07:50:40;;;;;;;1.20;0.50;;;;;;;22.24;37.52;99053.88;104992;1273;76641;-25
2022/07/16 07:53:08;;;;;;;2.40;0.90;;;;;;;22.21;37.57;99045.98;104790;1273;77044;-25
2022/07/16 07:55:35;;;;;;;1.40;0.50;;;;;;;22.17;37.39;99046.92;104986;1273;75292;-25
2022/07/16 07:58:03;;;;;;;0.90;0.70;;;;;;;22.28;36.82;99046.14;105054;1273;61880;-25
2022/07/16 08:00:31;;;;;;;2.60;0.80;;;;;;;22.29;37.13;99045.35;104869;1273;63172;-25
2022/07/16 08:02:58;;;;;;;6.90;1.00;;;;;;;22.52;38.08;99042.55;104994;1273;76641;-25
2022/07/16 08:05:26;;;;;;;2.90;0.90;;;;;;;22.66;38.03;99039.28;104630;1274;76081;-25
2022/07/16 08:07:53;;;;;;;1.70;0.80;;;;;;;22.61;38.03;99035.77;105011;1273;75137;-25
2022/07/16 08:10:21;;;;;;;2.00;0.80;;;;;;;22.77;37.25;99035.64;104714;1273;61149;-25
2022/07/16 08:12:48;;;;;;;4.00;1.00;;;;;;;22.58;38.07;99035.95;105059;1272;61291;-25
2022/07/16 08:15:16;;;;;;;1.70;1.10;;;;;;;22.50;39.56;99039.66;104935;1273;76265;-25
2022/07/16 08:17:43;;;;;;;5.00;1.00;;;;;;;22.39;38.63;99033.45;104798;1273;76028;-25
2022/07/16 08:20:13;;;;;;;1.10;0.70;;;;;;;22.10;38.30;99038.96;104653;1273;74713;-25
2022/07/16 08:22:40;;;;;;;4.20;0.90;;;;;;;21.95;38.56;99036.79;104432;1273;62012;-25
2022/07/16 08:27:54;;;;;;;1.80;1.00;;;;;;;21.92;38.28;99038.83;104746;1273;76487;-25
2022/07/16 08:30:21;;;;;;;3.20;0.80;;;;;;;22.29;38.96;99033.81;104644;1273;76704;-25
2022/07/16 08:32:49;;;;;;;2.90;0.80;;;;;;;22.66;38.28;99032.38;104653;1273;74444;-25
2022/07/16 08:35:17;;;;;;;1.30;0.70;;;;;;;22.95;37.72;99029.74;104637;1274;63110;-24
2022/07/16 08:37:45;;;;;;;2.00;0.80;;;;;;;22.92;36.04;99025.92;104570;1274;63274;-25
2022/07/16 08:40:19;;;;;;;1.70;0.90;;;;;;;22.90;36.61;99024.04;104616;1273;74641;-25
2022/07/16 08:42:46;;;;;;;1.80;0.70;;;;;;;23.10;38.09;99024.22;104463;1273;77045;-25
2022/07/16 08:45:17;;;;;;;4.40;0.80;;;;;;;22.83;37.39;99022.65;104640;1273;75097;-25
2022/07/16 08:47:45;;;;;;;3.40;1.00;;;;;;;22.66;37.93;99024.02;104492;1274;63440;-25
2022/07/16 08:50:14;;;;;;;2.00;0.90;;;;;;;22.72;37.13;99020.63;104914;1271;61235;-25
2022/07/16 08:52:50;;;;;;;3.10;0.90;;;;;;;22.69;38.21;99015.80;104697;1275;76738;-25
2022/07/16 08:55:19;;;;;;;3.50;0.90;;;;;;;22.87;36.32;99015.42;104637;1274;75794;-25
2022/07/16 08:57:48;;;;;;;2.90;0.90;;;;;;;23.03;36.04;99013.11;104501;1274;74025;-25
2022/07/16 09:00:16;;;;;;;1.40;0.90;;;;;;;23.40;35.35;99013.48;104706;1273;61770;-25
2022/07/16 09:02:44;;;;;;;0.90;0.60;;;;;;;23.41;34.11;99009.36;104656;1274;60956;-25
2022/07/16 09:05:13;;;;;;;5.90;0.90;;;;;;;23.73;35.27;99010.55;104444;1272;76694;-25
2022/07/16 09:07:40;;;;;;;1.60;1.00;;;;;;;23.54;35.71;99005.71;104739;1273;75946;-25
2022/07/16 09:10:08;;;;;;;2.20;0.90;;;;;;;23.53;36.20;99007.14;104983;1273;75251;-25
2022/07/16 09:12:38;;;;;;;2.80;1.10;;;;;;;23.40;36.09;99010.83;104453;1273;62169;-25
2022/07/16 09:15:28;;;;;;;2.70;0.90;;;;;;;22.80;36.90;99011.54;104583;1274;62767;-23
2022/07/16 09:18:17;;;;;;;1.40;0.70;;;;;;;22.52;36.72;99012.80;104588;1273;76552;-24
2022/07/16 09:20:49;;;;;;;2.10;0.70;;;;;;;22.87;36.40;99011.02;104821;1276;77000;-23
2022/07/16 09:23:21;;;;;;;2.50;0.60;;;;;;;23.25;35.59;99008.90;104611;1275;74185;-24
2022/07/16 09:25:58;;;;;;;4.00;0.70;;;;;;;23.36;35.32;99007.34;104715;1275;62924;-24
2022/07/16 09:28:49;;;;;;;1.60;0.70;;;;;;;23.47;35.98;99008.48;104724;1273;62850;-24
2022/07/16 09:31:39;;;;;;;2.70;0.90;;;;;;;23.41;36.20;99004.85;104609;1274;75642;-24
2022/07/16 09:34:07;;;;;;;1.90;0.90;;;;;;;23.66;35.09;99005.09;104645;1274;77198;-24
2022/07/16 09:36:36;;;;;;;1.60;0.60;;;;;;;23.41;35.60;99001.88;104705;1275;75543;-24
2022/07/16 09:39:05;;;;;;;3.40;0.80;;;;;;;23.32;35.69;99000.55;104604;1276;63153;-24
2022/07/16 09:41:43;;;;;;;1.20;0.70;;;;;;;23.59;36.65;98992.52;104755;1274;61157;-24
2022/07/16 09:44:22;;;;;;;4.90;1.30;;;;;;;23.72;36.88;98991.97;104782;1274;75487;-24
2022/07/16 09:47:02;;;;;;;1.90;0.80;;;;;;;23.39;36.91;98994.80;105047;1273;76918;-24
2022/07/16 09:49:31;;;;;;;1.80;0.70;;;;;;;23.18;36.24;98994.67;104730;1275;73597;-24
2022/07/16 09:51:58;;;;;;;1.30;0.90;;;;;;;22.91;35.99;98987.81;104984;1274;62079;-24
2022/07/16 09:54:30;;;;;;;6.40;1.40;;;;;;;22.83;37.96;98982.15;104718;1273;62480;-24
2022/07/16 09:57:09;;;;;;;4.50;0.80;;;;;;;22.88;38.44;98987.16;104624;1275;76563;-24
2022/07/16 09:59:36;;;;;;;1.00;0.70;;;;;;;23.11;37.77;98987.77;104609;1273;76174;-24
2022/07/16 10:02:23;;;;;;;4.20;0.80;;;;;;;23.42;36.42;98991.28;104644;1273;75434;-24
2022/07/16 10:04:51;;;;;;;1.40;0.80;;;;;;;23.61;36.83;98988.01;104671;1274;62088;-24
2022/07/16 10:07:19;;;;;;;2.20;1.00;;;;;;;23.81;36.87;98985.82;104775;1275;62141;-24
2022/07/16 10:09:47;;;;;;;2.40;0.80;;;;;;;24.17;36.08;98983.87;104975;1273;76594;-24
2022/07/16 10:12:15;;;;;;;1.90;0.80;;;;;;;24.12;35.11;98977.23;104979;1273;75739;-24
2022/07/16 10:14:48;;;;;;;2.20;0.80;;;;;;;23.70;36.17;98984.66;104696;1275;74160;-24
2022/07/16 10:17:22;;;;;;;2.10;0.80;;;;;;;23.02;36.80;98979.32;104446;1274;63332;-24
2022/07/16 10:19:57;;;;;;;5.20;1.10;;;;;;;22.77;37.24;98976.96;104621;1275;62057;-24
2022/07/16 10:22:30;;;;;;;2.50;0.80;;;;;;;22.68;37.73;98980.09;104490;1277;75449;-24
2022/07/16 10:24:57;;;;;;;;;;;;;;;23.12;36.78;98982.21;104610;1275;77166;-24
2022/07/16 10:27:34;;;;;;;1.40;0.70;;;;;;;23.49;35.44;98971.30;104766;1274;74310;-24
2022/07/16 10:30:13;;;;;;;5.70;1.10;;;;;;;23.82;35.08;98969.83;105005;1274;63080;-24
2022/07/16 10:32:59;;;;;;;1.20;0.80;;;;;;;23.76;35.27;98970.10;104724;1274;63311;-24
2022/07/16 10:35:32;;;;;;;1.80;0.70;;;;;;;23.92;34.91;98967.39;104702;1274;76327;-24
2022/07/16 10:38:16;;;;;;;2.20;0.80;;;;;;;24.15;34.97;98961.45;105064;1274;77098;-24
2022/07/16 10:41:13;;;;;;;3.20;1.20;;;;;;;24.34;34.90;98961.64;105092;1271;75424;-24
2022/07/16 10:43:42;;;;;;;5.90;0.90;;;;;;;24.55;33.86;98967.13;104701;1274;62973;-24
2022/07/16 10:46:10;;;;;;;1.90;0.90;;;;;;;24.84;35.68;98962.05;104802;1275;61765;-24
2022/07/16 10:48:38;;;;;;;1.90;0.70;;;;;;;24.48;32.68;98963.52;104724;1275;76681;-24
2022/07/16 10:51:13;;;;;;;3.10;1.00;;;;;;;24.35;34.01;98965.60;104654;1274;77175;-24
2022/07/16 10:54:01;;;;;;;3.10;1.10;;;;;;;23.83;35.55;98962.30;104578;1275;75132;-24
2022/07/16 10:56:45;;;;;;;1.40;0.80;;;;;;;23.09;37.11;98959.00;105010;1271;63379;-23
2022/07/16 10:59:19;;;;;;;4.30;1.00;;;;;;;23.05;37.35;98967.48;105040;1274;61682;-24
2022/07/16 11:01:49;;;;;;;1.10;0.70;;;;;;;23.42;36.50;98960.63;104756;1274;75296;-24
2022/07/16 11:04:16;;;;;;;6.10;1.10;;;;;;;22.76;38.16;98958.52;104674;1274;77127;-24
2022/07/16 11:06:50;;;;;;;1.20;0.90;;;;;;;22.73;38.09;98961.27;104596;1274;75449;-24
2022/07/16 11:09:26;;;;;;;5.50;0.90;;;;;;;23.09;36.83;98958.89;104710;1274;63086;-24
2022/07/16 11:11:55;;;;;;;2.00;0.90;;;;;;;23.13;36.69;98957.60;104514;1274;61844;-24
2022/07/16 11:14:29;;;;;;;1.90;0.90;;;;;;;22.64;37.23;98954.29;104598;1275;76396;-24
2022/07/16 11:16:57;;;;;;;2.10;0.70;;;;;;;22.28;37.55;98954.04;104469;1273;76987;-24
2022/07/16 11:19:24;;;;;;;0.80;0.70;;;;;;;22.02;38.28;98959.05;104659;1273;75461;-24
2022/07/16 11:21:53;;;;;;;2.90;0.80;;;;;;;21.71;40.08;98956.48;104740;1274;63054;-24
2022/07/16 11:24:20;;;;;;;3.90;0.90;;;;;;;21.83;40.40;98956.08;104684;1274;62924;-24
2022/07/16 11:26:48;;;;;;;0.80;0.70;;;;;;;22.50;41.06;98951.55;104639;1274;76550;-24
2022/07/16 11:29:15;;;;;;;2.30;0.90;;;;;;;23.38;38.83;98949.16;104658;1274;76690;-24
2022/07/16 11:31:43;;;;;;;2.40;1.10;;;;;;;23.75;37.45;98945.66;104565;1274;74150;-24
2022/07/16 11:34:11;;;;;;;1.20;0.80;;;;;;;23.72;35.91;98943.23;104610;1274;61201;-24
2022/07/16 11:36:40;;;;;;;1.10;0.70;;;;;;;23.81;37.17;98935.77;104636;1273;61791;-24
2022/07/16 11:39:13;;;;;;;1.50;0.80;;;;;;;23.75;35.24;98939.32;104554;1274;76559;-25